Time;durP1;ratioP1;P1;durP2;ratioP2;P2;SDS_P1;SDS_P2;PMS_P1;PMS_P2;Temp;Humidity;BMP_temperature;BMP_pressure;BME280_temperature;BME280_humidity;BME280_pressure;Samples;Min_cycle;Max_cycle;Signal;HPM_P1;HPM_P2
2021/08/18 00:01:11;;;;;;;3.92;3.40;;;;;;;22.12;70.15;99382.38;1608174;88;21099;-74
2021/08/18 00:03:40;;;;;;;5.62;3.55;;;;;;;22.13;69.99;99382.63;1593310;90;21005;-69
2021/08/18 00:06:07;;;;;;;5.85;2.85;;;;;;;22.16;69.89;99383.87;1593460;88;21419;-72
2021/08/18 00:08:33;;;;;;;4.12;3.72;;;;;;;22.18;69.69;99385.16;1586364;88;21222;-73
2021/08/18 00:11:01;;;;;;;3.95;3.17;;;;;;;22.00;70.56;99386.43;1569342;90;21062;-72
2021/08/18 00:13:28;;;;;;;5.28;3.72;;;;;;;21.65;72.08;99384.43;1616846;88;20998;-75
2021/08/18 00:15:58;;;;;;;4.67;2.85;;;;;;;21.48;72.66;99387.83;1639885;87;21078;-75
2021/08/18 00:18:26;;;;;;;3.75;3.42;;;;;;;21.52;72.35;99391.51;1566359;91;21547;-74
2021/08/18 00:20:54;;;;;;;5.30;3.65;;;;;;;21.53;72.40;99395.30;1592513;90;21002;-73
2021/08/18 00:23:20;;;;;;;4.25;3.77;;;;;;;21.51;72.58;99400.28;1549060;91;21553;-80
2021/08/18 00:25:47;;;;;;;4.20;3.52;;;;;;;21.49;72.80;99397.63;1567316;88;21186;-80
2021/08/18 00:28:13;;;;;;;8.18;4.00;;;;;;;21.46;73.17;99398.29;1586356;87;21015;-80
2021/08/18 00:30:39;;;;;;;6.47;4.65;;;;;;;21.43;73.39;99402.50;1565036;87;21021;-79
2021/08/18 00:33:07;;;;;;;4.37;3.98;;;;;;;21.40;73.54;99403.14;1570054;88;21071;-81
2021/08/18 00:35:34;;;;;;;4.90;4.40;;;;;;;21.37;73.67;99405.73;1582725;90;21059;-76
2021/08/18 00:38:01;;;;;;;4.50;4.10;;;;;;;21.37;73.78;99405.73;1582734;89;21047;-80
2021/08/18 00:40:28;;;;;;;5.92;4.12;;;;;;;21.38;73.79;99408.72;1554466;90;21163;-81
2021/08/18 00:42:56;;;;;;;5.95;4.08;;;;;;;21.40;73.65;99401.77;1591690;89;21111;-68
2021/08/18 00:45:22;;;;;;;6.65;4.85;;;;;;;21.41;73.57;99410.22;1582986;88;21067;-71
2021/08/18 00:47:51;;;;;;;4.87;4.42;;;;;;;21.37;73.64;99411.20;1581361;90;21738;-72
2021/08/18 00:50:23;;;;;;;9.28;4.50;;;;;;;21.31;73.81;99406.48;1598424;89;21026;-73
2021/08/18 00:52:53;;;;;;;4.62;4.08;;;;;;;21.27;74.03;99411.00;1615005;88;20998;-75
2021/08/18 00:55:24;;;;;;;5.60;4.78;;;;;;;21.23;74.26;99415.52;1596540;88;21058;-77
2021/08/18 00:57:53;;;;;;;8.63;5.78;;;;;;;21.15;74.82;99414.41;1596827;89;22395;-76
2021/08/18 01:00:19;;;;;;;7.08;4.70;;;;;;;20.74;77.13;99407.31;1597578;89;21603;-76
2021/08/18 01:02:48;;;;;;;7.15;5.30;;;;;;;20.45;79.00;99408.79;1611664;88;21015;-78
2021/08/18 01:05:20;;;;;;;5.45;4.67;;;;;;;20.31;80.43;99413.61;1620177;87;21510;-79
2021/08/18 01:07:47;;;;;;;5.77;5.20;;;;;;;20.31;80.43;99413.61;1605581;88;21079;-79
2021/08/18 01:10:17;;;;;;;5.42;4.10;;;;;;;20.36;80.16;99412.64;1617574;88;21885;-81
2021/08/18 01:12:45;;;;;;;8.65;4.72;;;;;;;20.36;81.23;99406.62;1635740;87;21027;-80
2021/08/18 01:15:14;;;;;;;6.37;5.37;;;;;;;20.36;81.23;99406.62;1582753;90;21036;-80
2021/08/18 01:17:47;;;;;;;6.17;5.50;;;;;;;20.21;82.80;99413.89;1571825;91;21603;-79
2021/08/18 01:20:17;;;;;;;;;;;;;;;20.05;84.63;99416.05;1580900;91;21020;-77
2021/08/18 01:22:45;;;;;;;10.43;5.90;;;;;;;19.94;85.39;99410.89;1580267;90;20097;-77
2021/08/18 01:25:12;;;;;;;9.33;5.87;;;;;;;19.89;86.23;99415.13;1559060;90;21042;-77
2021/08/18 01:27:44;;;;;;;8.65;5.33;;;;;;;19.85;87.04;99410.07;1571846;91;21031;-77
2021/08/18 01:30:12;;;;;;;5.65;5.15;;;;;;;19.87;87.73;99411.09;1575068;89;21596;-79
2021/08/18 01:33:04;;;;;;;7.20;4.60;;;;;;;20.01;87.01;99419.40;1616885;86;21044;-79
2021/08/18 01:35:34;;;;;;;5.75;5.15;;;;;;;20.11;86.19;99421.58;1590871;89;21148;-78
2021/08/18 01:38:01;;;;;;;5.17;4.35;;;;;;;20.19;85.92;99429.77;1595811;85;25233;-76
2021/08/18 01:40:27;;;;;;;6.03;4.40;;;;;;;20.27;85.75;99434.47;1641119;86;21083;-77
2021/08/18 01:42:54;;;;;;;8.43;5.15;;;;;;;20.35;85.60;99432.88;1655080;84;21025;-79
2021/08/18 01:45:30;;;;;;;5.70;5.20;;;;;;;20.44;85.36;99424.13;1644344;85;21561;-80
2021/08/18 01:47:58;;;;;;;6.78;4.40;;;;;;;20.52;85.13;99429.36;1645011;85;21161;-80
2021/08/18 01:50:25;;;;;;;7.78;5.05;;;;;;;20.58;84.88;99432.16;1644544;86;21097;-82
2021/08/18 01:52:52;;;;;;;7.85;5.30;;;;;;;20.63;84.67;99432.80;1676176;85;21096;-79
2021/08/18 01:55:21;;;;;;;6.53;4.92;;;;;;;20.66;84.49;99436.27;1645636;86;21039;-79
2021/08/18 01:57:47;;;;;;;8.78;5.50;;;;;;;20.69;84.39;99430.15;1645486;86;21024;-79
2021/08/18 02:00:15;;;;;;;9.40;5.20;;;;;;;20.75;84.31;99428.06;1645605;86;21787;-79
2021/08/18 02:02:42;;;;;;;5.87;5.28;;;;;;;20.83;84.06;99433.52;1631093;87;20959;-78
2021/08/18 02:05:09;;;;;;;5.83;5.28;;;;;;;20.94;83.76;99433.98;1621727;87;21046;-78
2021/08/18 02:07:36;;;;;;;5.40;4.90;;;;;;;21.03;83.32;99435.33;1621561;87;21067;-79
2021/08/18 02:10:08;;;;;;;6.75;5.58;;;;;;;21.05;82.83;99433.89;1645986;87;20959;-79
2021/08/18 02:12:36;;;;;;;7.78;5.62;;;;;;;20.90;83.30;99426.20;1672066;85;22345;-78
2021/08/18 02:15:07;;;;;;;7.30;5.05;;;;;;;20.61;84.82;99422.77;1637696;86;20915;-78
2021/08/18 02:17:35;;;;;;;6.03;5.42;;;;;;;20.37;86.80;99415.06;1644063;86;20951;-77
2021/08/18 02:20:05;;;;;;;7.70;5.70;;;;;;;20.24;87.78;99415.19;1645282;87;21031;-77
2021/08/18 02:22:36;;;;;;;5.30;4.90;;;;;;;20.22;88.33;99418.79;1644054;86;21556;-77
2021/08/18 02:25:05;;;;;;;7.90;5.97;;;;;;;20.20;88.59;99413.64;1622155;87;21285;-78
2021/08/18 02:27:33;;;;;;;10.75;7.45;;;;;;;20.21;88.57;99411.72;1643893;87;20959;-76
2021/08/18 02:29:59;;;;;;;8.43;7.05;;;;;;;20.23;88.17;99410.28;1644829;87;21536;-78
2021/08/18 02:32:25;;;;;;;8.45;6.40;;;;;;;20.27;87.96;99407.71;1645623;86;20992;-78
2021/08/18 02:34:52;;;;;;;11.70;7.65;;;;;;;20.32;87.93;99412.48;1643989;87;21570;-79
2021/08/18 02:37:18;;;;;;;8.43;6.92;;;;;;;20.37;87.68;99413.70;1644462;87;21041;-78
2021/08/18 02:39:45;;;;;;;6.65;5.37;;;;;;;20.44;87.65;99415.92;1621383;87;20954;-77
2021/08/18 02:42:11;;;;;;;6.85;5.37;;;;;;;20.55;87.22;99408.22;1645608;85;21017;-79
2021/08/18 02:44:38;;;;;;;8.63;6.33;;;;;;;20.65;86.84;99414.72;1630904;86;21016;-77
2021/08/18 02:47:05;;;;;;;5.70;5.20;;;;;;;20.75;86.43;99413.84;1645555;86;21114;-77
2021/08/18 02:49:31;;;;;;;6.35;4.95;;;;;;;20.96;85.25;99415.90;1632043;87;21025;-78
2021/08/18 02:51:58;;;;;;;6.17;5.58;;;;;;;20.96;85.25;99415.90;1645332;86;21656;-79
2021/08/18 02:54:25;;;;;;;5.85;5.35;;;;;;;21.02;84.52;99416.75;1646550;86;21005;-78
2021/08/18 02:56:52;;;;;;;6.30;5.40;;;;;;;21.13;84.24;99410.38;1645516;86;21321;-77
2021/08/18 02:59:19;;;;;;;5.37;4.87;;;;;;;21.14;83.32;99405.18;1645202;86;22234;-79
2021/08/18 03:01:46;;;;;;;5.42;4.35;;;;;;;21.13;83.48;99406.27;1644184;85;21038;-78
2021/08/18 03:04:14;;;;;;;5.70;5.15;;;;;;;21.13;83.04;99399.44;1643824;86;21262;-79
2021/08/18 03:06:42;;;;;;;9.98;6.03;;;;;;;21.05;83.11;99396.98;1643902;86;21059;-78
2021/08/18 03:09:08;;;;;;;6.95;5.42;;;;;;;20.87;83.92;99394.83;1639647;87;21014;-77
2021/08/18 03:11:37;;;;;;;5.33;4.83;;;;;;;20.82;84.31;99388.72;1639095;87;20987;-74
2021/08/18 03:14:03;;;;;;;8.33;5.37;;;;;;;20.85;84.53;99391.63;1612211;87;21911;-73
2021/08/18 03:16:30;;;;;;;6.97;6.10;;;;;;;20.84;84.53;99396.05;1611943;87;21023;-74
2021/08/18 03:18:57;;;;;;;11.80;5.53;;;;;;;20.75;84.96;99404.27;1638159;87;21063;-74
2021/08/18 03:21:23;;;;;;;6.53;5.33;;;;;;;20.74;85.22;99408.69;1614102;87;21030;-74
2021/08/18 03:23:49;;;;;;;5.97;5.25;;;;;;;20.76;85.62;99416.81;1660470;85;21405;-75
2021/08/18 03:26:17;;;;;;;8.18;6.25;;;;;;;20.87;85.45;99426.83;1639930;87;20932;-75
2021/08/18 03:28:45;;;;;;;6.70;5.12;;;;;;;21.02;85.09;99420.05;1640019;87;21491;-74
2021/08/18 03:31:13;;;;;;;5.45;4.95;;;;;;;21.18;84.34;99422.54;1640971;87;20993;-74
2021/08/18 03:33:40;;;;;;;6.55;5.85;;;;;;;21.30;83.58;99420.72;1659773;85;21009;-75
2021/08/18 03:36:06;;;;;;;5.22;4.78;;;;;;;21.38;82.97;99425.13;1641336;85;21077;-75
2021/08/18 03:38:33;;;;;;;6.67;5.92;;;;;;;21.44;82.36;99425.20;1640489;85;21031;-75
2021/08/18 03:40:59;;;;;;;5.00;4.50;;;;;;;21.46;82.10;99433.86;1641164;87;21038;-76
2021/08/18 03:43:25;;;;;;;10.18;5.17;;;;;;;21.48;81.82;99431.05;1655546;85;21075;-75
2021/08/18 03:45:52;;;;;;;7.85;6.05;;;;;;;21.51;81.68;99435.05;1638498;87;21575;-75
2021/08/18 03:48:19;;;;;;;9.73;6.92;;;;;;;21.51;81.68;99434.49;1644487;86;21063;-75
2021/08/18 03:50:45;;;;;;;6.45;5.80;;;;;;;21.51;81.63;99435.86;1640579;87;21519;-76
2021/08/18 03:53:12;;;;;;;5.28;4.83;;;;;;;21.51;81.72;99439.16;1640228;87;21084;-76
2021/08/18 03:55:39;;;;;;;7.90;6.35;;;;;;;21.52;81.71;99438.84;1610702;87;21015;-75
2021/08/18 03:58:05;;;;;;;9.95;6.05;;;;;;;21.50;81.83;99436.98;1639787;87;21068;-75
2021/08/18 04:00:32;;;;;;;6.37;5.53;;;;;;;21.50;81.98;99443.02;1613716;87;21620;-75
2021/08/18 04:02:58;;;;;;;5.83;5.10;;;;;;;21.49;82.19;99444.95;1619839;87;21786;-74
2021/08/18 04:05:24;;;;;;;6.80;5.22;;;;;;;21.48;82.33;99443.93;1639248;87;20936;-74
2021/08/18 04:07:50;;;;;;;8.63;6.12;;;;;;;21.48;82.31;99432.98;1623122;85;21123;-75
2021/08/18 04:10:17;;;;;;;7.47;6.12;;;;;;;21.48;82.40;99438.45;1632018;87;21035;-76
2021/08/18 04:12:59;;;;;;;7.53;6.20;;;;;;;21.48;82.50;99432.42;1643032;86;21517;-76
2021/08/18 04:15:31;;;;;;;14.03;7.03;;;;;;;21.25;84.18;99439.23;1642016;87;21092;-79
2021/08/18 04:17:59;;;;;;;6.00;5.40;;;;;;;20.99;85.68;99442.58;1641990;87;20959;-81
2021/08/18 04:20:26;;;;;;;7.03;6.42;;;;;;;20.81;86.89;99457.63;1642003;86;21074;-78
2021/08/18 04:22:54;;;;;;;13.03;6.65;;;;;;;20.71;87.82;99460.71;1645237;87;21513;-78
2021/08/18 04:25:20;;;;;;;8.85;6.53;;;;;;;20.62;88.58;99463.20;1644937;86;21598;-79
2021/08/18 04:27:48;;;;;;;9.40;6.17;;;;;;;20.60;89.21;99461.34;1645357;87;21549;-78
2021/08/18 04:30:15;;;;;;;7.53;6.08;;;;;;;20.60;89.23;99453.95;1632714;87;20951;-80
2021/08/18 04:32:42;;;;;;;6.08;5.47;;;;;;;20.73;88.15;99470.74;1645696;87;21222;-77
2021/08/18 04:35:10;;;;;;;8.08;4.65;;;;;;;20.78;87.43;99471.14;1646399;86;21028;-75
2021/08/18 04:37:36;;;;;;;8.23;5.12;;;;;;;20.80;87.38;99473.81;1632392;87;21083;-78
2021/08/18 04:40:06;;;;;;;6.12;5.62;;;;;;;20.84;87.24;99482.97;1646134;86;21491;-76
2021/08/18 04:42:38;;;;;;;5.72;5.12;;;;;;;20.82;87.34;99489.31;1634106;86;21059;-79
2021/08/18 04:45:09;;;;;;;5.87;5.40;;;;;;;20.87;87.17;99486.41;1646227;86;20996;-78
2021/08/18 04:47:36;;;;;;;19.25;17.32;;;;;;;20.96;86.56;99465.89;1662329;86;21596;-76
2021/08/18 04:50:06;;;;;;;9.53;6.70;;;;;;;21.04;86.30;99453.35;1664644;86;21039;-77
2021/08/18 04:52:32;;;;;;;6.42;5.83;;;;;;;21.10;85.84;99452.84;1662874;86;21094;-77
2021/08/18 04:54:58;;;;;;;6.50;5.78;;;;;;;21.09;85.47;99452.63;1663083;84;21003;-78
2021/08/18 04:57:25;;;;;;;9.03;6.42;;;;;;;21.16;85.25;99449.40;1662785;86;21046;-77
2021/08/18 04:59:51;;;;;;;5.37;4.90;;;;;;;21.16;84.84;99442.56;1645764;86;21509;-78
2021/08/18 05:02:18;;;;;;;8.03;5.65;;;;;;;21.19;85.37;99448.77;1645636;86;20977;-79
2021/08/18 05:04:44;;;;;;;9.85;8.48;;;;;;;21.26;85.44;99433.45;1630294;87;21019;-78
2021/08/18 05:07:10;;;;;;;8.73;7.80;;;;;;;21.38;85.13;99427.30;1646981;87;21074;-77
2021/08/18 05:09:37;;;;;;;9.78;8.98;;;;;;;21.29;84.14;99435.52;1637836;85;21015;-77
2021/08/18 05:12:06;;;;;;;7.20;6.62;;;;;;;21.05;85.63;99416.12;1633952;87;20991;-77
2021/08/18 05:14:34;;;;;;;10.10;8.15;;;;;;;20.96;87.26;99420.77;1658802;85;21118;-76
2021/08/18 05:17:00;;;;;;;8.83;7.70;;;;;;;20.89;87.64;99421.84;1639847;86;21091;-76
2021/08/18 05:19:29;;;;;;;7.58;6.97;;;;;;;20.87;87.61;99433.10;1641275;87;21017;-78
2021/08/18 05:21:57;;;;;;;7.17;6.47;;;;;;;20.85;87.50;99446.31;1640599;87;20916;-78
2021/08/18 05:24:23;;;;;;;12.05;10.90;;;;;;;20.86;87.81;99451.98;1613836;87;21023;-80
2021/08/18 05:26:50;;;;;;;9.38;8.58;;;;;;;20.94;87.62;99456.42;1657400;85;21117;-79
2021/08/18 05:29:16;;;;;;;9.88;8.55;;;;;;;21.06;87.60;99457.91;1659776;85;21256;-79
2021/08/18 05:31:43;;;;;;;9.10;8.20;;;;;;;21.16;86.62;99452.13;1641644;85;22334;-80
2021/08/18 05:34:09;;;;;;;10.28;9.08;;;;;;;21.22;86.00;99454.38;1641528;87;21510;-79
2021/08/18 05:36:36;;;;;;;8.28;7.55;;;;;;;21.20;85.66;99455.82;1661198;85;21074;-79
2021/08/18 05:39:02;;;;;;;9.50;8.50;;;;;;;21.21;85.57;99450.03;1644489;86;21026;-80
2021/08/18 05:41:30;;;;;;;11.45;8.28;;;;;;;21.16;85.71;99450.77;1618276;86;21290;-81
2021/08/18 05:43:59;;;;;;;11.03;9.23;;;;;;;21.03;86.61;99457.20;1570538;85;21015;-79
2021/08/18 05:46:25;;;;;;;12.47;9.00;;;;;;;20.87;87.26;99464.54;1643093;84;20964;-82
2021/08/18 05:48:52;;;;;;;10.32;9.43;;;;;;;20.83;88.64;99466.31;1616250;87;21019;-81
2021/08/18 05:51:18;;;;;;;8.15;7.40;;;;;;;20.85;88.37;99468.18;1614538;87;21085;-81
2021/08/18 05:53:49;;;;;;;8.58;7.78;;;;;;;20.89;88.86;99462.30;1640593;87;21159;-82
2021/08/18 05:56:13;;;;;;;8.75;8.05;;;;;;;20.95;88.47;99469.78;1640184;87;21047;-81
2021/08/18 05:58:40;;;;;;;7.95;7.15;;;;;;;20.92;87.61;99467.67;1613983;87;21119;-83
2021/08/18 06:01:08;;;;;;;7.70;7.00;;;;;;;20.83;85.90;99464.95;1640299;87;21127;-80
2021/08/18 06:03:37;;;;;;;7.35;6.65;;;;;;;20.74;85.93;99469.63;1613726;87;21002;-80
2021/08/18 06:06:04;;;;;;;7.03;6.42;;;;;;;20.64;86.15;99464.47;1638620;87;21881;-81
2021/08/18 06:08:32;;;;;;;6.22;5.62;;;;;;;20.55;86.30;99464.23;1612448;86;21024;-80
2021/08/18 06:11:00;;;;;;;6.15;5.25;;;;;;;20.49;86.70;99470.41;1638719;87;21030;-80
2021/08/18 06:13:29;;;;;;;7.75;6.28;;;;;;;20.45;86.68;99473.55;1638622;87;21151;-81
2021/08/18 06:15:56;;;;;;;8.05;6.22;;;;;;;20.41;87.21;99470.66;1638680;87;21521;-82
2021/08/18 06:18:23;;;;;;;8.70;6.75;;;;;;;20.35;87.48;99467.03;1640296;87;21126;-81
2021/08/18 06:20:51;;;;;;;7.45;6.75;;;;;;;20.28;88.34;99470.78;1640257;87;21084;-83
2021/08/18 06:23:20;;;;;;;7.65;6.03;;;;;;;20.28;89.02;99472.95;1639412;87;20975;-86
2021/08/18 06:25:45;;;;;;;10.60;7.75;;;;;;;20.30;89.68;99461.16;1640299;87;20946;-87
2021/08/18 06:28:12;;;;;;;8.43;7.03;;;;;;;20.32;89.75;99471.77;1615727;87;21015;-87
2021/08/18 06:30:38;;;;;;;7.53;5.30;;;;;;;20.30;89.80;99470.72;1621246;87;21070;-86
2021/08/18 06:33:07;;;;;;;9.05;6.20;;;;;;;20.29;90.46;99459.52;1615070;87;20911;-89
2021/08/18 06:35:33;;;;;;;8.25;6.78;;;;;;;20.30;90.58;99464.42;1644115;87;21030;-84
2021/08/18 06:38:00;;;;;;;7.00;5.55;;;;;;;20.31;90.49;99468.80;1644204;87;21252;-88
2021/08/18 06:40:27;;;;;;;7.25;6.45;;;;;;;20.35;90.50;99461.56;1645106;85;20907;-84
2021/08/18 06:42:55;;;;;;;7.80;6.37;;;;;;;20.38;90.32;99476.75;1644845;86;20984;-88
2021/08/18 06:45:22;;;;;;;7.30;6.55;;;;;;;20.42;90.18;99485.94;1617593;84;20932;-90
2021/08/18 06:47:48;;;;;;;8.45;7.60;;;;;;;20.41;89.47;99478.86;1644195;84;20990;-88
2021/08/18 06:50:16;;;;;;;7.33;6.62;;;;;;;20.39;88.97;99477.55;1643784;86;20962;-84
2021/08/18 06:52:43;;;;;;;8.50;7.08;;;;;;;20.41;89.10;99486.24;1642956;87;21027;-84
2021/08/18 06:55:11;;;;;;;7.58;6.87;;;;;;;20.42;89.45;99492.77;1660500;86;22401;-83
2021/08/18 06:57:38;;;;;;;7.55;6.75;;;;;;;20.45;89.87;99496.22;1660952;86;20962;-82
2021/08/18 07:00:06;;;;;;;9.93;7.12;;;;;;;20.44;89.43;99500.63;1642898;87;20925;-83
2021/08/18 07:02:32;;;;;;;8.70;7.87;;;;;;;20.44;89.48;99511.55;1643727;84;20989;-82
2021/08/18 07:05:06;;;;;;;8.33;7.53;;;;;;;20.37;89.13;99512.05;1644369;86;20935;-84
2021/08/18 07:07:32;;;;;;;;;;;;;;;20.33;89.24;99513.80;1647069;84;21030;-82
2021/08/18 07:10:00;;;;;;;10.38;7.03;;;;;;;20.28;89.34;99499.46;1647029;84;20188;-84
2021/08/18 07:12:27;;;;;;;7.97;7.17;;;;;;;20.28;89.66;99511.19;1624365;87;20982;-84
2021/08/18 07:14:55;;;;;;;9.63;7.53;;;;;;;20.26;88.77;99503.05;1647112;86;20915;-86
2021/08/18 07:17:23;;;;;;;7.97;7.20;;;;;;;20.27;89.21;99501.38;1624184;87;20958;-83
2021/08/18 07:19:51;;;;;;;8.55;7.75;;;;;;;20.31;89.83;99499.65;1627329;87;21167;-83
2021/08/18 07:22:18;;;;;;;7.15;6.42;;;;;;;20.36;90.07;99495.40;1626251;87;21018;-84
2021/08/18 07:24:46;;;;;;;7.78;7.08;;;;;;;20.38;89.78;99501.92;1649956;85;20919;-84
2021/08/18 07:27:12;;;;;;;7.15;6.45;;;;;;;20.37;89.54;99504.41;1649607;87;20971;-83
2021/08/18 07:29:38;;;;;;;11.90;7.35;;;;;;;20.36;89.29;99488.57;1634777;87;20952;-79
2021/08/18 07:32:05;;;;;;;9.03;7.20;;;;;;;20.39;89.37;99500.77;1649429;85;21185;-83
2021/08/18 07:34:33;;;;;;;7.40;6.70;;;;;;;20.39;89.37;99500.77;1636384;85;20952;-82
2021/08/18 07:37:00;;;;;;;7.80;7.10;;;;;;;20.36;89.09;99497.33;1636827;85;20870;-81
2021/08/18 07:39:27;;;;;;;7.95;7.12;;;;;;;20.30;89.18;99487.11;1636802;85;21033;-82
2021/08/18 07:41:53;;;;;;;8.58;7.80;;;;;;;20.25;89.67;99485.86;1650035;84;21020;-82
2021/08/18 07:44:20;;;;;;;8.13;7.40;;;;;;;20.20;89.43;99467.45;1636035;86;21899;-82
2021/08/18 07:46:48;;;;;;;6.75;6.05;;;;;;;20.10;89.67;99439.88;1648792;83;20904;-82
2021/08/18 07:49:14;;;;;;;8.30;7.50;;;;;;;20.01;90.43;99423.49;1648710;84;21011;-85
2021/08/18 07:51:40;;;;;;;7.53;6.67;;;;;;;19.93;90.64;99426.21;1635285;84;21343;-83
2021/08/18 07:54:07;;;;;;;7.08;6.47;;;;;;;19.86;91.11;99451.23;1637430;86;20922;-82
2021/08/18 07:56:33;;;;;;;6.17;5.67;;;;;;;19.85;91.17;99440.66;1650564;86;21205;-82
2021/08/18 07:59:00;;;;;;;6.25;5.65;;;;;;;19.89;91.73;99442.98;1649009;84;20987;-81
2021/08/18 08:01:27;;;;;;;5.53;4.80;;;;;;;19.80;91.08;99447.62;1649088;85;20947;-81
2021/08/18 08:03:54;;;;;;;5.87;5.28;;;;;;;19.78;90.76;99451.21;1650028;83;21000;-84
2021/08/18 08:06:21;;;;;;;6.80;5.00;;;;;;;19.69;90.97;99440.27;1636197;83;20992;-86
2021/08/18 08:08:47;;;;;;;5.95;5.35;;;;;;;19.71;90.86;99456.34;1649949;83;21002;-84
2021/08/18 08:11:14;;;;;;;6.35;5.08;;;;;;;19.70;90.95;99452.80;1648936;83;20960;-86
2021/08/18 08:13:40;;;;;;;6.05;4.80;;;;;;;19.56;91.76;99459.73;1648427;84;21241;-87
2021/08/18 08:16:07;;;;;;;7.42;5.65;;;;;;;19.56;92.00;99443.37;1648466;85;21174;-84
2021/08/18 08:18:35;;;;;;;6.22;5.00;;;;;;;19.51;92.39;99442.70;1635636;87;20951;-83
2021/08/18 08:21:02;;;;;;;6.47;5.65;;;;;;;19.52;92.81;99444.28;1633899;87;21062;-83
2021/08/18 08:23:28;;;;;;;6.47;5.40;;;;;;;19.49;92.97;99454.47;1647580;84;20923;-82
2021/08/18 08:25:55;;;;;;;7.10;6.40;;;;;;;19.50;92.88;99443.81;1626248;87;21006;-81
2021/08/18 08:28:21;;;;;;;7.25;5.95;;;;;;;19.49;93.02;99443.00;1672549;82;21047;-83
2021/08/18 08:30:49;;;;;;;6.83;6.12;;;;;;;19.49;93.67;99451.19;1649616;85;20952;-81
2021/08/18 08:33:18;;;;;;;7.20;6.50;;;;;;;19.50;93.62;99454.16;1635717;86;21118;-83
2021/08/18 08:35:45;;;;;;;6.12;5.55;;;;;;;19.57;93.76;99465.41;1636474;85;20992;-83
2021/08/18 08:38:13;;;;;;;6.67;5.40;;;;;;;19.59;93.62;99466.47;1648622;85;20951;-84
2021/08/18 08:40:42;;;;;;;6.22;5.72;;;;;;;19.57;93.16;99477.69;1648937;85;21132;-83
2021/08/18 08:43:09;;;;;;;6.75;6.20;;;;;;;19.48;92.98;99474.13;1648833;84;20913;-84
2021/08/18 08:45:35;;;;;;;5.87;5.37;;;;;;;19.46;93.46;99476.93;1649000;85;21501;-82
2021/08/18 08:48:02;;;;;;;6.05;5.55;;;;;;;19.45;94.04;99484.86;1649609;86;21076;-80
2021/08/18 08:50:30;;;;;;;6.35;5.75;;;;;;;19.40;93.66;99476.23;1649371;87;20960;-80
2021/08/18 08:52:56;;;;;;;5.53;4.60;;;;;;;19.40;93.73;99482.23;1647299;86;20938;-81
2021/08/18 08:55:23;;;;;;;5.70;5.03;;;;;;;19.38;93.61;99480.37;1624759;87;21014;-81
2021/08/18 08:57:51;;;;;;;5.95;5.37;;;;;;;19.32;93.54;99492.55;1647701;87;21130;-83
2021/08/18 09:00:19;;;;;;;6.10;4.87;;;;;;;19.26;93.78;99493.23;1648715;84;20897;-82
2021/08/18 09:02:47;;;;;;;7.35;5.80;;;;;;;19.27;93.84;99504.95;1649209;83;21020;-83
2021/08/18 09:05:27;;;;;;;10.28;5.37;;;;;;;19.27;93.89;99524.84;1648648;84;20920;-83
2021/08/18 09:07:57;;;;;;;5.10;4.60;;;;;;;19.30;94.05;99539.77;1648778;86;21007;-82
2021/08/18 09:10:26;;;;;;;5.83;5.17;;;;;;;19.37;93.99;99522.42;1648755;85;20983;-83
2021/08/18 09:13:14;;;;;;;6.75;6.03;;;;;;;19.32;94.37;99508.91;1642801;85;20913;-84
2021/08/18 09:15:48;;;;;;;7.95;6.47;;;;;;;19.27;94.79;99498.13;1643364;84;20995;-86
2021/08/18 09:18:15;;;;;;;8.35;6.03;;;;;;;19.10;96.19;99489.27;1589681;85;21031;-87
2021/08/18 09:20:44;;;;;;;5.47;4.92;;;;;;;19.07;96.57;99496.72;1605619;84;20965;-91
2021/08/18 09:23:12;;;;;;;5.17;4.67;;;;;;;19.04;96.94;99487.22;1596477;87;21246;-86
2021/08/18 09:25:41;;;;;;;6.42;5.50;;;;;;;18.95;98.23;99491.00;1626452;85;20927;-88
2021/08/18 09:28:13;;;;;;;6.17;5.55;;;;;;;18.94;98.33;99483.97;1643556;84;20964;-89
2021/08/18 09:30:43;;;;;;;7.97;7.10;;;;;;;18.97;98.75;99488.78;1643803;85;20890;-89
2021/08/18 09:33:17;;;;;;;7.05;5.83;;;;;;;19.00;99.07;99491.69;1643029;87;20996;-89
2021/08/18 09:35:46;;;;;;;6.60;6.00;;;;;;;19.04;99.46;99500.85;1642190;87;21190;-85
2021/08/18 09:38:14;;;;;;;6.35;5.78;;;;;;;19.07;99.78;99503.53;1614701;87;20915;-90
2021/08/18 09:40:48;;;;;;;8.35;6.15;;;;;;;19.09;100.00;99506.73;1660327;85;21061;-87
2021/08/18 09:43:17;;;;;;;7.10;6.40;;;;;;;19.06;100.00;99505.45;1641686;87;21038;-83
2021/08/18 09:45:50;;;;;;;6.53;5.83;;;;;;;19.04;100.00;99509.61;1641372;87;21037;-78
2021/08/18 09:48:18;;;;;;;6.58;5.97;;;;;;;19.05;100.00;99511.20;1656760;84;21219;-75
2021/08/18 09:50:53;;;;;;;5.28;4.80;;;;;;;19.06;100.00;99521.80;1638487;87;21535;-79
2021/08/18 09:53:23;;;;;;;;;;;;;;;19.10;100.00;99524.70;1617731;88;21103;-78
2021/08/18 09:56:08;;;;;;;7.55;4.90;;;;;;;19.08;100.00;99522.31;1641637;86;20209;-89
2021/08/18 09:58:43;;;;;;;6.17;5.53;;;;;;;19.04;100.00;99521.30;1638918;87;21034;-88
2021/08/18 10:01:13;;;;;;;6.55;5.30;;;;;;;19.01;100.00;99515.11;1612608;87;21702;-86
2021/08/18 10:03:42;;;;;;;6.90;5.92;;;;;;;18.91;100.00;99511.27;1612395;87;21602;-77
2021/08/18 10:06:10;;;;;;;5.97;5.35;;;;;;;18.82;100.00;99517.20;1638239;87;21054;-77
2021/08/18 10:08:37;;;;;;;5.65;5.15;;;;;;;18.83;100.00;99513.93;1638409;87;20962;-74
2021/08/18 10:11:07;;;;;;;9.60;5.85;;;;;;;18.85;100.00;99519.30;1638342;86;21008;-88
2021/08/18 10:13:35;;;;;;;5.50;5.00;;;;;;;18.88;100.00;99523.34;1638500;87;20939;-82
2021/08/18 10:16:02;;;;;;;5.47;4.95;;;;;;;18.89;100.00;99517.59;1638738;87;21579;-85
2021/08/18 10:18:35;;;;;;;8.70;6.60;;;;;;;18.87;100.00;99523.91;1638257;87;21038;-76
2021/08/18 10:21:17;;;;;;;6.55;5.95;;;;;;;18.88;100.00;99515.98;1612699;87;21007;-87
2021/08/18 10:23:54;;;;;;;6.78;5.12;;;;;;;18.89;100.00;99507.25;1612865;87;21231;-81
2021/08/18 10:26:39;;;;;;;5.58;4.87;;;;;;;18.87;100.00;99515.73;1612528;87;21704;-87
2021/08/18 10:29:12;;;;;;;6.08;5.15;;;;;;;18.88;100.00;99511.08;1638920;87;20999;-82
2021/08/18 10:31:49;;;;;;;8.18;6.80;;;;;;;18.92;100.00;99519.69;1638573;87;21010;-80
2021/08/18 10:34:38;;;;;;;9.85;7.03;;;;;;;18.89;100.00;99513.51;1638980;87;21595;-84
2021/08/18 10:37:15;;;;;;;8.48;7.10;;;;;;;18.86;100.00;99507.30;1638433;86;21050;-80
2021/08/18 10:39:51;;;;;;;7.37;6.67;;;;;;;18.80;100.00;99506.38;1612517;87;21093;-72
2021/08/18 10:42:16;;;;;;;7.95;7.15;;;;;;;18.78;100.00;99509.41;1611557;87;21026;-79
2021/08/18 10:45:04;;;;;;;7.87;6.87;;;;;;;18.81;100.00;99503.88;1639150;87;21003;-86
2021/08/18 10:47:44;;;;;;;7.83;6.10;;;;;;;18.84;100.00;99499.19;1638958;87;21571;-77
2021/08/18 10:50:25;;;;;;;8.18;7.05;;;;;;;18.85;100.00;99495.36;1612056;87;20983;-82
2021/08/18 10:52:54;;;;;;;9.93;6.72;;;;;;;18.90;100.00;99497.38;1638650;87;21071;-75
2021/08/18 10:55:30;;;;;;;8.10;7.15;;;;;;;18.97;100.00;99510.59;1613469;87;21014;-84
2021/08/18 10:58:05;;;;;;;10.50;9.20;;;;;;;18.96;100.00;99504.89;1640647;87;21102;-85
2021/08/18 11:00:41;;;;;;;8.23;6.05;;;;;;;18.99;100.00;99508.38;1617599;86;20982;-77
2021/08/18 11:03:18;;;;;;;9.78;8.08;;;;;;;19.04;100.00;99495.98;1643831;87;20960;-80
2021/08/18 11:05:52;;;;;;;7.20;6.50;;;;;;;19.07;100.00;99492.08;1662615;85;21045;-78
2021/08/18 11:08:37;;;;;;;8.98;7.33;;;;;;;19.10;100.00;99490.08;1644340;86;20950;-74
2021/08/18 11:11:09;;;;;;;7.72;7.00;;;;;;;19.10;100.00;99489.27;1647782;87;20971;-81
2021/08/18 11:13:48;;;;;;;15.18;8.53;;;;;;;19.10;100.00;99493.36;1652536;85;20997;-81
2021/08/18 11:16:28;;;;;;;13.08;9.25;;;;;;;19.10;100.00;99490.08;1627121;87;21583;-85
2021/08/18 11:19:02;;;;;;;15.95;10.10;;;;;;;19.09;99.94;99480.28;1627412;87;21159;-82
2021/08/18 11:21:36;;;;;;;10.50;7.37;;;;;;;19.12;99.63;99476.95;1691150;84;20978;-81
2021/08/18 11:24:12;;;;;;;9.55;8.00;;;;;;;19.17;99.78;99478.75;1671797;84;21528;-82
2021/08/18 11:26:42;;;;;;;10.00;6.10;;;;;;;19.18;99.99;99462.05;1692049;84;20916;-78
2021/08/18 11:29:18;;;;;;;12.00;8.08;;;;;;;19.22;100.00;99463.62;1691715;84;20995;-78
2021/08/18 11:31:50;;;;;;;9.10;7.37;;;;;;;19.26;100.00;99460.51;1692137;84;21038;-78
2021/08/18 11:34:26;;;;;;;8.90;8.10;;;;;;;19.26;99.77;99452.88;1679954;84;21531;-83
2021/08/18 11:37:12;;;;;;;10.50;7.80;;;;;;;19.30;99.95;99447.05;1646410;85;21501;-81
2021/08/18 11:39:46;;;;;;;8.88;6.55;;;;;;;19.40;100.00;99444.05;1623686;87;21066;-82